createdAt,value
2022-08-22T00:03:00.127Z,202.37
2022-08-22T00:03:18.599Z,203.74
2022-08-22T00:03:23.894Z,128.05
2022-08-22T00:04:21.357Z,126.31
2022-08-22T00:05:21.414Z,126.31
2022-08-22T00:06:21.505Z,128.24
2022-08-22T00:07:21.593Z,128.34
2022-08-22T00:08:21.668Z,129.33
2022-08-22T00:09:21.771Z,130.23
2022-08-22T00:10:25.046Z,130.94
2022-08-22T00:11:21.889Z,132.90
2022-08-22T00:12:21.973Z,133.43
2022-08-22T00:13:22.050Z,133.75
2022-08-22T00:14:22.143Z,134.18
2022-08-22T00:15:42.638Z,134.71
2022-08-22T00:16:22.360Z,136.02
2022-08-22T00:17:22.380Z,136.57
2022-08-22T00:18:22.479Z,137.02
2022-08-22T00:19:22.572Z,138.95
2022-08-22T00:20:28.043Z,137.81
2022-08-22T00:21:22.704Z,138.95
2022-08-22T00:22:22.791Z,139.99
2022-08-22T00:23:22.869Z,140.34
2022-08-22T00:24:22.958Z,140.34
2022-08-22T00:25:25.446Z,142.48
2022-08-22T00:26:23.129Z,142.24
2022-08-22T00:27:23.187Z,142.60
2022-08-22T00:28:23.271Z,143.70
2022-08-22T00:29:23.340Z,143.94
2022-08-22T00:30:23.401Z,144.19
2022-08-22T00:31:23.493Z,145.06
2022-08-22T00:32:23.577Z,145.18
2022-08-22T00:33:23.638Z,145.69
2022-08-22T00:34:23.743Z,145.82
2022-08-22T00:35:23.826Z,146.96
2022-08-22T00:36:23.876Z,147.35
2022-08-22T00:37:24.251Z,147.48
2022-08-22T00:38:24.025Z,147.35
2022-08-22T00:39:24.152Z,148.65
2022-08-22T00:40:24.192Z,147.61
2022-08-22T00:41:24.373Z,148.13
2022-08-22T00:42:31.454Z,148.39
2022-08-22T00:43:24.424Z,149.58
2022-08-22T00:44:24.527Z,149.18
2022-08-22T00:45:24.572Z,148.78
2022-08-22T00:46:24.677Z,149.84
2022-08-22T00:47:24.898Z,150.92
2022-08-22T00:48:24.855Z,150.92
2022-08-22T00:49:27.152Z,150.78
2022-08-22T00:50:24.973Z,150.65
2022-08-22T00:51:25.073Z,151.05
2022-08-22T00:52:25.151Z,151.46
2022-08-22T00:53:25.220Z,152.01
2022-08-22T00:54:25.294Z,151.19
2022-08-22T00:55:25.376Z,151.74
2022-08-22T00:56:25.522Z,153.12
2022-08-22T00:57:25.533Z,152.15
2022-08-22T00:58:25.602Z,152.84
2022-08-22T00:59:25.709Z,152.70
2022-08-22T01:00:25.767Z,152.29
2022-08-22T01:01:25.941Z,152.56
2022-08-22T01:02:25.935Z,152.84
2022-08-22T01:03:26.023Z,152.98
2022-08-22T01:04:26.102Z,153.40
2022-08-22T01:05:26.202Z,153.40
2022-08-22T01:06:26.274Z,153.68
2022-08-22T01:07:30.474Z,155.10
2022-08-22T01:08:26.469Z,153.40
2022-08-22T01:09:26.475Z,153.68
2022-08-22T01:10:26.611Z,154.67
2022-08-22T01:11:26.655Z,155.24
2022-08-22T01:12:26.704Z,155.82
2022-08-22T01:13:26.788Z,155.53
2022-08-22T01:14:34.827Z,155.82
2022-08-22T01:15:26.962Z,156.69
2022-08-22T01:16:27.045Z,155.67
2022-08-22T01:17:27.127Z,156.98
2022-08-22T01:18:27.215Z,155.96
2022-08-22T01:19:27.283Z,155.96
2022-08-22T01:20:27.360Z,155.96
2022-08-22T01:21:27.433Z,156.83
2022-08-22T01:22:27.505Z,155.67
2022-08-22T01:23:27.596Z,156.10
2022-08-22T01:24:27.644Z,155.96
2022-08-22T01:25:27.770Z,157.13
2022-08-22T01:26:27.830Z,156.10
2022-08-22T01:27:27.872Z,156.83
2022-08-22T01:28:28.000Z,156.98
2022-08-22T01:29:28.718Z,157.27
2022-08-22T01:30:28.124Z,156.40
2022-08-22T01:31:28.227Z,157.13
2022-08-22T01:32:28.308Z,156.98
2022-08-22T01:33:28.426Z,156.98
2022-08-22T01:34:28.457Z,156.98
2022-08-22T01:35:28.550Z,158.46
2022-08-22T01:36:28.618Z,156.83
2022-08-22T01:37:28.689Z,158.01
2022-08-22T01:38:28.784Z,157.42
2022-08-22T01:39:28.870Z,157.86
2022-08-22T01:40:28.928Z,158.91
2022-08-22T01:41:29.012Z,158.31
2022-08-22T01:42:29.092Z,158.16
2022-08-22T01:43:43.917Z,159.06
2022-08-22T01:44:29.263Z,157.71
2022-08-22T01:45:29.345Z,157.86
2022-08-22T01:46:29.422Z,159.06
2022-08-22T01:47:29.504Z,158.01
2022-08-22T01:48:29.601Z,159.66
2022-08-22T01:49:29.687Z,158.46
2022-08-22T01:50:29.767Z,158.61
2022-08-22T01:51:29.840Z,158.76
2022-08-22T01:52:29.919Z,158.91
2022-08-22T01:53:30.022Z,158.01
2022-08-22T01:54:30.044Z,159.36
2022-08-22T01:55:30.121Z,158.31
2022-08-22T01:56:30.207Z,157.71
2022-08-22T01:57:30.280Z,157.71
2022-08-22T01:58:30.381Z,159.21
2022-08-22T01:59:34.084Z,159.21
2022-08-22T02:00:35.035Z,158.01
2022-08-22T02:01:30.618Z,158.91
2022-08-22T02:02:30.711Z,159.66
2022-08-22T02:03:30.882Z,159.21
2022-08-22T02:04:30.896Z,159.97
2022-08-22T02:05:30.955Z,159.21
2022-08-22T02:06:31.044Z,159.66
2022-08-22T02:07:32.295Z,159.51
2022-08-22T02:08:31.209Z,159.36
2022-08-22T02:09:31.302Z,159.51
2022-08-22T02:10:31.383Z,158.61
2022-08-22T02:11:31.451Z,159.51
2022-08-22T02:12:31.541Z,160.12
2022-08-22T02:13:31.617Z,160.42
2022-08-22T02:14:31.717Z,159.21
2022-08-22T02:15:31.794Z,160.12
2022-08-22T02:16:31.877Z,159.97
2022-08-22T02:17:31.970Z,159.36
2022-08-22T02:18:32.064Z,159.36
2022-08-22T02:19:32.154Z,159.97
2022-08-22T02:20:32.228Z,160.42
2022-08-22T02:21:32.298Z,159.66
2022-08-22T02:22:32.424Z,160.88
2022-08-22T02:23:32.457Z,160.88
2022-08-22T02:24:32.540Z,159.51
2022-08-22T02:25:32.615Z,159.97
2022-08-22T02:26:32.700Z,159.97
2022-08-22T02:27:32.789Z,161.81
2022-08-22T02:28:32.875Z,161.19
2022-08-22T02:29:32.942Z,160.88
2022-08-22T02:30:33.034Z,160.73
2022-08-22T02:31:33.101Z,160.42
2022-08-22T02:32:33.211Z,160.12
2022-08-22T02:33:34.072Z,161.19
2022-08-22T02:34:33.327Z,161.04
2022-08-22T02:35:33.399Z,161.04
2022-08-22T02:36:33.486Z,162.28
2022-08-22T02:37:33.607Z,161.81
2022-08-22T02:38:33.657Z,161.19
2022-08-22T02:39:33.712Z,161.66
2022-08-22T02:40:33.810Z,161.04
2022-08-22T02:41:33.865Z,161.19
2022-08-22T02:42:33.963Z,161.04
2022-08-22T02:43:34.027Z,160.88
2022-08-22T02:44:34.116Z,162.75
2022-08-22T02:45:34.188Z,161.50
2022-08-22T02:46:34.253Z,162.13
2022-08-22T02:47:34.347Z,160.73
2022-08-22T02:48:34.426Z,162.91
2022-08-22T02:49:34.480Z,161.50
2022-08-22T02:50:34.568Z,162.91
2022-08-22T02:51:34.647Z,161.19
2022-08-22T02:52:34.748Z,162.13
2022-08-22T02:53:34.822Z,161.81
2022-08-22T02:54:34.879Z,163.23
2022-08-22T02:55:34.969Z,161.81
2022-08-22T02:56:35.047Z,161.81
2022-08-22T02:57:36.217Z,162.60
2022-08-22T02:58:35.233Z,162.44
2022-08-22T02:59:35.304Z,161.19
2022-08-22T03:00:35.428Z,161.97
2022-08-22T03:01:35.450Z,162.75
2022-08-22T03:02:35.554Z,163.70
2022-08-22T03:03:35.609Z,162.13
2022-08-22T03:04:35.693Z,162.60
2022-08-22T03:05:35.765Z,163.23
2022-08-22T03:06:35.846Z,162.91
2022-08-22T03:07:35.956Z,163.70
2022-08-22T03:08:36.029Z,163.86
2022-08-22T03:09:36.112Z,163.23
2022-08-22T03:10:36.205Z,162.28
2022-08-22T03:11:36.285Z,162.44
2022-08-22T03:12:36.382Z,162.75
2022-08-22T03:13:36.451Z,163.07
2022-08-22T03:14:36.537Z,164.83
2022-08-22T03:15:36.624Z,163.39
2022-08-22T03:16:36.721Z,164.51
2022-08-22T03:17:36.793Z,163.23
2022-08-22T03:18:36.872Z,163.70
2022-08-22T03:19:36.970Z,164.35
2022-08-22T03:20:37.055Z,163.39
2022-08-22T03:21:37.126Z,163.70
2022-08-22T03:22:37.252Z,163.39
2022-08-22T03:23:37.294Z,164.02
2022-08-22T03:24:37.376Z,164.83
2022-08-22T03:25:37.454Z,164.02
2022-08-22T03:26:37.543Z,165.97
2022-08-22T03:27:37.657Z,164.02
2022-08-22T03:28:37.713Z,165.31
2022-08-22T03:29:37.788Z,163.07
2022-08-22T03:30:37.890Z,164.02
2022-08-22T03:31:37.955Z,163.86
2022-08-22T03:32:38.049Z,165.48
2022-08-22T03:33:38.089Z,164.51
2022-08-22T03:34:38.188Z,165.48
2022-08-22T03:35:38.243Z,165.97
2022-08-22T03:36:38.353Z,164.35
2022-08-22T03:37:38.431Z,165.80
2022-08-22T03:38:38.474Z,164.35
2022-08-22T03:39:38.588Z,165.31
2022-08-22T03:40:38.622Z,164.67
2022-08-22T03:41:38.722Z,165.48
2022-08-22T03:42:38.800Z,165.64
2022-08-22T03:43:38.863Z,164.83
2022-08-22T03:44:38.950Z,166.13
2022-08-22T03:45:39.024Z,165.48
2022-08-22T03:46:39.109Z,165.80
2022-08-22T03:47:39.168Z,165.80
2022-08-22T03:48:39.261Z,165.80
2022-08-22T03:49:39.327Z,164.99
2022-08-22T03:50:39.416Z,165.64
2022-08-22T03:51:39.494Z,166.13
2022-08-22T03:52:39.573Z,166.29
2022-08-22T03:53:39.659Z,165.48
2022-08-22T03:54:39.766Z,165.97
2022-08-22T03:55:39.849Z,165.48
2022-08-22T03:56:39.911Z,165.48
2022-08-22T03:57:39.980Z,165.31
2022-08-22T03:58:40.050Z,166.46
2022-08-22T03:59:42.583Z,165.97
2022-08-22T04:00:40.226Z,166.13
2022-08-22T04:01:40.281Z,165.97
2022-08-22T04:02:43.817Z,165.48
2022-08-22T04:03:40.454Z,165.31
2022-08-22T04:04:40.535Z,166.96
2022-08-22T04:05:40.595Z,166.96
2022-08-22T04:06:40.732Z,166.29
2022-08-22T04:07:40.770Z,165.80
2022-08-22T04:08:43.862Z,167.12
2022-08-22T04:09:40.921Z,167.46
2022-08-22T04:10:40.988Z,166.62
2022-08-22T04:11:41.107Z,167.12
2022-08-22T04:12:41.156Z,167.79
2022-08-22T04:13:41.222Z,166.29
2022-08-22T04:14:41.336Z,166.62
2022-08-22T04:15:41.391Z,166.46
2022-08-22T04:16:41.489Z,167.12
2022-08-22T04:17:41.541Z,167.46
2022-08-22T04:18:41.616Z,167.79
2022-08-22T04:19:41.694Z,167.79
2022-08-22T04:20:41.873Z,167.62
2022-08-22T04:21:41.886Z,166.79
2022-08-22T04:22:41.962Z,167.29
2022-08-22T04:23:42.035Z,166.29
2022-08-22T04:24:42.110Z,166.62
2022-08-22T04:25:42.172Z,166.46
2022-08-22T04:26:42.285Z,166.46
2022-08-22T04:27:42.347Z,167.46
2022-08-22T04:28:42.411Z,167.29
2022-08-22T04:29:42.504Z,167.46
2022-08-22T04:30:42.621Z,167.96
2022-08-22T04:31:42.644Z,167.62
2022-08-22T04:32:42.740Z,166.79
2022-08-22T04:33:42.813Z,167.12
2022-08-22T04:34:42.891Z,167.29
2022-08-22T04:35:42.980Z,166.79
2022-08-22T04:36:43.071Z,168.29
2022-08-22T04:37:43.121Z,168.12
2022-08-22T04:38:43.204Z,169.31
2022-08-22T04:39:43.307Z,169.82
2022-08-22T04:40:43.408Z,169.48
2022-08-22T04:41:43.463Z,170.17
2022-08-22T04:42:43.619Z,170.17
2022-08-22T04:43:43.625Z,171.73
2022-08-22T04:44:43.730Z,171.21
2022-08-22T04:45:43.858Z,171.38
2022-08-22T04:46:43.874Z,171.56
2022-08-22T04:47:43.963Z,172.26
2022-08-22T04:48:44.042Z,172.26
2022-08-22T04:49:44.180Z,173.50
2022-08-22T04:50:44.290Z,173.68
2022-08-22T04:51:44.347Z,173.15
2022-08-22T04:52:44.398Z,173.50
2022-08-22T04:53:44.557Z,173.86
2022-08-22T04:54:44.633Z,174.95
2022-08-22T04:55:44.698Z,174.95
2022-08-22T04:56:44.750Z,174.77
2022-08-22T04:57:44.761Z,174.77
2022-08-22T04:58:44.989Z,174.95
2022-08-22T04:59:44.919Z,175.68
2022-08-22T05:00:45.103Z,176.05
2022-08-22T05:01:45.277Z,176.05
2022-08-22T05:02:45.120Z,176.23
2022-08-22T05:03:45.198Z,176.42
2022-08-22T05:04:45.274Z,176.97
2022-08-22T05:05:45.382Z,177.35
2022-08-22T05:06:45.457Z,177.16
2022-08-22T05:07:45.499Z,177.16
2022-08-22T05:08:45.624Z,177.91
2022-08-22T05:09:45.679Z,177.35
2022-08-22T05:10:45.766Z,177.16
2022-08-22T05:11:45.827Z,178.29
2022-08-22T05:12:45.940Z,178.67
2022-08-22T05:13:45.992Z,177.91
2022-08-22T05:14:46.110Z,179.24
2022-08-22T05:15:46.171Z,179.24
2022-08-22T05:16:46.257Z,177.35
2022-08-22T05:17:46.343Z,177.72
2022-08-22T05:18:46.438Z,179.24
2022-08-22T05:19:46.507Z,178.67
2022-08-22T05:20:46.602Z,178.29
2022-08-22T05:21:46.680Z,177.72
2022-08-22T05:22:46.789Z,179.05
2022-08-22T05:23:46.829Z,179.24
2022-08-22T05:24:46.961Z,178.10
2022-08-22T05:25:47.005Z,179.43
2022-08-22T05:26:47.122Z,179.43
2022-08-22T05:27:47.157Z,180.01
2022-08-22T05:28:51.309Z,179.81
2022-08-22T05:29:47.362Z,180.01
2022-08-22T05:30:47.396Z,179.81
2022-08-22T05:31:47.515Z,180.20
2022-08-22T05:32:47.530Z,178.86
2022-08-22T05:33:47.606Z,179.43
2022-08-22T05:34:47.714Z,179.24
2022-08-22T05:35:50.760Z,180.59
2022-08-22T05:36:47.838Z,180.39
2022-08-22T05:37:47.921Z,179.81
2022-08-22T05:38:47.983Z,180.20
2022-08-22T05:39:48.127Z,180.39
2022-08-22T05:40:48.147Z,178.67
2022-08-22T05:41:48.215Z,180.20
2022-08-22T05:42:48.271Z,180.59
2022-08-22T05:43:48.368Z,178.86
2022-08-22T05:44:48.470Z,180.97
2022-08-22T05:45:48.518Z,179.43
2022-08-22T05:46:48.606Z,180.39
2022-08-22T05:47:48.667Z,180.78
2022-08-22T05:48:48.749Z,182.35
2022-08-22T05:49:48.851Z,181.36
2022-08-22T05:50:50.982Z,180.39
2022-08-22T05:51:48.998Z,181.56
2022-08-22T05:52:49.078Z,180.78
2022-08-22T05:53:49.164Z,181.36
2022-08-22T05:54:49.324Z,181.36
2022-08-22T05:55:49.331Z,182.94
2022-08-22T05:56:49.428Z,182.15
2022-08-22T05:57:49.492Z,180.97
2022-08-22T05:58:49.589Z,181.76
2022-08-22T05:59:49.703Z,181.95
2022-08-22T06:00:49.714Z,180.97
2022-08-22T06:01:49.818Z,182.74
2022-08-22T06:02:49.880Z,181.17
2022-08-22T06:03:49.959Z,181.95
2022-08-22T06:04:50.046Z,182.35
2022-08-22T06:05:50.118Z,181.95
2022-08-22T06:06:50.205Z,182.35
2022-08-22T06:07:50.305Z,181.95
2022-08-22T06:08:50.421Z,182.74
2022-08-22T06:09:50.438Z,182.74
2022-08-22T06:10:50.533Z,181.95
2022-08-22T06:11:51.964Z,182.15
2022-08-22T06:12:50.690Z,183.34
2022-08-22T06:13:50.763Z,182.94
2022-08-22T06:14:50.848Z,183.34
2022-08-22T06:15:50.902Z,182.94
2022-08-22T06:16:50.974Z,183.54
2022-08-22T06:17:51.058Z,182.15
2022-08-22T06:18:51.136Z,184.55
2022-08-22T06:19:51.210Z,183.14
2022-08-22T06:20:51.304Z,184.35
2022-08-22T06:21:51.714Z,183.94
2022-08-22T06:22:51.438Z,184.15
2022-08-22T06:23:51.551Z,184.15
2022-08-22T06:24:51.618Z,184.55
2022-08-22T06:25:51.674Z,183.34
2022-08-22T06:26:51.760Z,183.14
2022-08-22T06:27:51.894Z,184.75
2022-08-22T06:28:55.339Z,184.55
2022-08-22T06:29:52.008Z,183.34
2022-08-22T06:30:52.144Z,184.75
2022-08-22T06:31:52.147Z,184.75
2022-08-22T06:33:00.132Z,184.35
2022-08-22T06:33:52.359Z,185.16
2022-08-22T06:34:52.409Z,183.94
2022-08-22T06:35:52.464Z,184.55
2022-08-22T06:36:52.551Z,185.57
2022-08-22T06:37:52.663Z,184.35
2022-08-22T06:38:52.721Z,185.36
2022-08-22T06:39:52.838Z,183.94
2022-08-22T06:40:52.857Z,184.35
2022-08-22T06:41:52.930Z,185.77
2022-08-22T06:42:52.985Z,184.15
2022-08-22T06:43:53.117Z,185.57
2022-08-22T06:44:53.142Z,185.98
2022-08-22T06:45:53.222Z,184.75
2022-08-22T06:46:53.310Z,185.36
2022-08-22T06:47:53.764Z,185.36
2022-08-22T06:48:53.478Z,186.39
2022-08-22T06:49:53.610Z,184.75
2022-08-22T06:50:53.624Z,184.75
2022-08-22T06:51:53.700Z,186.18
2022-08-22T06:52:53.776Z,185.36
2022-08-22T06:53:53.880Z,186.18
2022-08-22T06:54:53.925Z,185.36
2022-08-22T06:55:54.011Z,185.77
2022-08-22T06:56:54.103Z,185.57
2022-08-22T06:57:54.215Z,184.75
2022-08-22T06:58:54.239Z,185.36
2022-08-22T06:59:54.329Z,185.36
2022-08-22T07:01:05.762Z,185.57
2022-08-22T07:01:54.581Z,184.55
2022-08-22T07:02:54.573Z,186.39
2022-08-22T07:03:54.671Z,185.16
2022-08-22T07:04:54.712Z,186.18
2022-08-22T07:05:54.818Z,185.98
2022-08-22T07:06:54.887Z,185.16
2022-08-22T07:07:55.016Z,184.55
2022-08-22T07:08:55.083Z,184.96
2022-08-22T07:09:55.156Z,184.35
2022-08-22T07:10:55.210Z,184.55
2022-08-22T07:11:55.295Z,185.57
2022-08-22T07:12:55.390Z,184.15
2022-08-22T07:13:55.459Z,184.75
2022-08-22T07:14:55.559Z,184.55
2022-08-22T07:15:56.347Z,185.36
2022-08-22T07:16:55.725Z,183.94
2022-08-22T07:17:55.874Z,183.54
2022-08-22T07:18:55.855Z,185.36
2022-08-22T07:19:55.948Z,185.16
2022-08-22T07:20:56.019Z,184.15
2022-08-22T07:21:56.123Z,183.54
2022-08-22T07:22:56.204Z,183.74
2022-08-22T07:23:56.249Z,184.15
2022-08-22T07:24:56.330Z,183.34
2022-08-22T07:25:56.433Z,185.16
2022-08-22T07:26:56.505Z,183.54
2022-08-22T07:27:56.629Z,184.96
2022-08-22T07:28:58.741Z,183.34
2022-08-22T07:29:56.710Z,183.94
2022-08-22T07:30:56.798Z,185.36
2022-08-22T07:31:56.896Z,184.15
2022-08-22T07:32:56.961Z,184.96
2022-08-22T07:33:57.047Z,185.16
2022-08-22T07:34:57.107Z,183.54
2022-08-22T07:35:57.212Z,184.35
2022-08-22T07:36:57.315Z,184.15
2022-08-22T07:37:57.366Z,184.96
2022-08-22T07:38:57.409Z,183.94
2022-08-22T07:39:57.517Z,184.15
2022-08-22T07:40:57.569Z,182.55
2022-08-22T07:41:57.674Z,183.54
2022-08-22T07:42:57.748Z,182.94
2022-08-22T07:43:57.840Z,183.34
2022-08-22T07:44:57.867Z,182.74
2022-08-22T07:45:57.951Z,182.15
2022-08-22T07:46:58.025Z,182.35
2022-08-22T07:47:58.150Z,182.15
2022-08-22T07:49:13.304Z,182.55
2022-08-22T07:49:58.269Z,182.94
2022-08-22T07:50:58.338Z,183.14
2022-08-22T07:51:58.428Z,183.94
2022-08-22T07:52:58.504Z,182.55
2022-08-22T07:54:00.849Z,182.94
2022-08-22T07:54:58.671Z,182.35
2022-08-22T07:55:58.780Z,182.94
2022-08-22T07:56:58.831Z,181.56
2022-08-22T07:57:59.158Z,182.55
2022-08-22T07:58:58.988Z,182.94
2022-08-22T07:59:59.064Z,181.76
2022-08-22T08:00:59.247Z,182.15
2022-08-22T08:01:59.225Z,182.55
2022-08-22T08:02:59.290Z,181.76
2022-08-22T08:03:59.377Z,182.74
2022-08-22T08:04:59.450Z,182.74
2022-08-22T08:05:59.548Z,182.55
2022-08-22T08:06:59.636Z,181.17
2022-08-22T08:07:59.903Z,181.95
2022-08-22T08:08:59.809Z,181.95
2022-08-22T08:09:59.919Z,182.55
2022-08-22T08:11:00.061Z,181.95
2022-08-22T08:12:00.062Z,181.36
2022-08-22T08:13:02.824Z,181.95
2022-08-22T08:14:00.250Z,182.55
2022-08-22T08:15:00.296Z,182.35
2022-08-22T08:16:00.349Z,182.55
2022-08-22T08:17:00.453Z,182.35
2022-08-22T08:18:00.761Z,183.34
2022-08-22T08:19:00.599Z,183.14
2022-08-22T08:20:00.680Z,182.74
2022-08-22T08:21:00.740Z,182.94
2022-08-22T08:22:00.825Z,182.74
2022-08-22T08:23:00.924Z,183.34
2022-08-22T08:24:01.009Z,183.34
2022-08-22T08:25:01.085Z,183.14
2022-08-22T08:26:01.161Z,182.74
2022-08-22T08:27:01.227Z,183.74
2022-08-22T08:28:01.395Z,183.94
2022-08-22T08:29:01.411Z,184.35
2022-08-22T08:30:01.460Z,182.55
2022-08-22T08:31:01.569Z,182.74
2022-08-22T08:32:01.642Z,183.54
2022-08-22T08:33:25.069Z,183.94
2022-08-22T08:34:01.800Z,184.35
2022-08-22T08:35:01.928Z,184.15
2022-08-22T08:36:03.929Z,184.75
2022-08-22T08:37:02.055Z,184.96
2022-08-22T08:38:02.139Z,184.55
2022-08-22T08:39:02.207Z,184.15
2022-08-22T08:40:02.411Z,185.77
2022-08-22T08:41:02.387Z,184.96
2022-08-22T08:42:02.482Z,184.96
2022-08-22T08:43:02.568Z,183.14
2022-08-22T08:44:02.652Z,184.35
2022-08-22T08:45:02.729Z,183.34
2022-08-22T08:46:02.819Z,182.35
2022-08-22T08:47:02.889Z,183.94
2022-08-22T08:48:02.985Z,184.55
2022-08-22T08:49:06.458Z,184.35
2022-08-22T08:50:03.128Z,183.14
2022-08-22T08:51:03.195Z,184.35
2022-08-22T08:52:03.256Z,182.74
2022-08-22T08:53:03.342Z,184.15
2022-08-22T08:54:03.471Z,184.35
2022-08-22T08:55:15.965Z,184.15
2022-08-22T08:56:03.655Z,183.34
2022-08-22T08:57:03.699Z,183.34
2022-08-22T08:58:07.112Z,182.15
2022-08-22T08:59:03.888Z,184.15
2022-08-22T09:00:03.976Z,182.55
2022-08-22T09:01:04.127Z,183.74
2022-08-22T09:02:04.127Z,183.74
2022-08-22T09:03:06.988Z,183.94
2022-08-22T09:04:04.268Z,182.94
2022-08-22T09:05:04.338Z,183.14
2022-08-22T09:06:04.492Z,183.54
2022-08-22T09:07:04.526Z,183.14
2022-08-22T09:08:04.601Z,182.74
2022-08-22T09:09:04.712Z,184.15
2022-08-22T09:10:04.753Z,183.14
2022-08-22T09:11:09.911Z,182.35
2022-08-22T09:12:04.967Z,182.55
2022-08-22T09:13:12.196Z,183.54
2022-08-22T09:14:05.099Z,182.15
2022-08-22T09:15:05.166Z,183.34
2022-08-22T09:16:05.588Z,185.77
2022-08-22T09:17:05.314Z,185.16
2022-08-22T09:18:05.421Z,185.77
2022-08-22T09:19:05.468Z,185.77
2022-08-22T09:20:18.009Z,185.77
2022-08-22T09:21:05.652Z,185.77
2022-08-22T09:22:05.727Z,184.75
2022-08-22T09:23:05.800Z,185.77
2022-08-22T09:24:05.879Z,184.55
2022-08-22T09:25:06.128Z,184.55
2022-08-22T09:26:06.072Z,184.75
2022-08-22T09:27:08.596Z,185.57
2022-08-22T09:28:06.212Z,185.55
2022-08-22T09:29:06.290Z,186.50
2022-08-22T09:30:06.377Z,186.81
2022-08-22T09:31:21.836Z,187.13
2022-08-22T09:40:30.642Z,163.07
2022-08-22T09:41:30.732Z,166.13
2022-08-22T09:42:30.822Z,169.82
2022-08-22T09:43:30.926Z,172.08
2022-08-22T09:44:30.974Z,174.95
2022-08-22T09:45:31.097Z,176.23
2022-08-22T09:46:34.731Z,177.16
2022-08-22T09:47:31.306Z,178.67
2022-08-22T09:48:31.310Z,178.10
2022-08-22T09:49:31.378Z,180.97
2022-08-22T09:50:31.505Z,180.78
2022-08-22T09:51:33.132Z,181.36
2022-08-22T09:52:33.841Z,182.94
2022-08-22T09:53:31.696Z,181.95
2022-08-22T09:54:32.822Z,181.95
2022-08-22T09:55:35.272Z,182.15
2022-08-22T09:56:31.920Z,183.74
2022-08-22T09:57:32.014Z,184.55
2022-08-22T09:58:32.097Z,185.55
2022-08-22T09:59:33.700Z,186.92
2022-08-22T10:00:32.237Z,186.92
2022-08-22T10:01:32.847Z,189.82
2022-08-22T10:02:32.365Z,190.03
2022-08-22T10:03:32.481Z,189.05
2022-08-22T10:04:32.521Z,188.62
2022-08-22T10:05:40.913Z,189.71
2022-08-22T10:06:32.700Z,190.03
2022-08-22T10:07:32.775Z,190.91
2022-08-22T10:08:32.874Z,191.57
2022-08-22T10:09:32.931Z,191.13
2022-08-22T10:10:33.005Z,190.14
2022-08-22T10:11:33.081Z,189.92
2022-08-22T10:12:36.469Z,192.24
2022-08-22T10:13:34.154Z,191.57
2022-08-22T10:14:33.323Z,192.47
2022-08-22T10:15:33.403Z,191.80
2022-08-22T10:16:33.456Z,192.13
2022-08-22T10:17:33.590Z,193.48
2022-08-22T10:18:33.604Z,192.36
2022-08-22T10:19:33.683Z,193.48
2022-08-22T10:20:34.059Z,193.71
2022-08-22T10:21:33.866Z,193.37
2022-08-22T10:22:33.968Z,192.92
2022-08-22T10:23:34.028Z,192.47
2022-08-22T10:24:34.132Z,192.36
2022-08-22T10:25:34.211Z,191.80
2022-08-22T10:26:38.547Z,190.58
2022-08-22T10:27:34.387Z,190.36
2022-08-22T10:28:34.470Z,190.36
2022-08-22T10:29:34.583Z,191.24
2022-08-22T10:30:34.671Z,192.47
2022-08-22T10:31:34.720Z,192.69
2022-08-22T10:32:34.796Z,195.66
2022-08-22T10:33:34.899Z,195.31
2022-08-22T10:34:34.982Z,197.76
2022-08-22T10:35:35.088Z,198.12
2022-08-22T10:36:35.132Z,199.80
2022-08-22T10:37:35.201Z,200.16
2022-08-22T10:38:43.961Z,200.04
2022-08-22T10:39:35.393Z,198.95
2022-08-22T10:40:36.094Z,201.75
2022-08-22T10:41:35.538Z,201.87
2022-08-22T10:42:36.414Z,200.04
2022-08-22T10:43:35.709Z,201.87
2022-08-22T10:44:35.806Z,200.52
2022-08-22T10:45:37.043Z,201.26
2022-08-22T10:46:35.955Z,201.01
2022-08-22T10:47:36.018Z,201.99
2022-08-22T10:48:36.101Z,202.99
2022-08-22T10:49:36.220Z,202.74
2022-08-22T10:50:36.383Z,203.49
2022-08-22T10:51:36.774Z,203.86
2022-08-22T10:52:36.434Z,202.74
2022-08-22T10:53:36.519Z,203.36
2022-08-22T10:54:36.576Z,204.49
2022-08-22T10:55:36.845Z,208.10
2022-08-22T10:56:36.740Z,208.89
2022-08-22T10:57:36.859Z,206.67
2022-08-22T10:58:36.914Z,208.10
2022-08-22T10:59:37.056Z,208.49
2022-08-22T11:00:37.133Z,207.71
2022-08-22T11:01:42.030Z,207.84
2022-08-22T11:02:37.236Z,206.67
2022-08-22T11:03:37.836Z,206.79
2022-08-22T11:04:37.397Z,206.41
2022-08-22T11:05:37.474Z,205.89
2022-08-22T11:06:37.561Z,207.05
2022-08-22T11:07:37.646Z,205.13
2022-08-22T11:08:37.800Z,202.74
2022-08-22T11:09:37.797Z,203.86
2022-08-22T11:10:37.873Z,203.61
2022-08-22T11:11:38.013Z,202.74
2022-08-22T11:12:41.747Z,201.75
2022-08-22T11:13:38.146Z,201.13
2022-08-22T11:14:38.207Z,202.12
2022-08-22T11:15:38.279Z,200.04
2022-08-22T11:16:41.611Z,200.65
2022-08-22T11:17:42.653Z,200.40
2022-08-22T11:18:38.517Z,199.80
2022-08-22T11:19:38.584Z,200.89
2022-08-22T11:20:38.665Z,198.71
2022-08-22T11:21:38.755Z,199.55
2022-08-22T11:22:38.824Z,199.68
2022-08-22T11:23:38.911Z,198.36
2022-08-22T11:24:55.906Z,197.76
2022-08-22T11:25:39.284Z,196.94
2022-08-22T11:26:47.237Z,194.96
2022-08-22T11:27:40.786Z,196.82
2022-08-22T11:28:39.311Z,196.12
2022-08-22T11:29:39.365Z,195.66
2022-08-22T11:30:45.235Z,195.08
2022-08-22T11:31:39.547Z,194.51
2022-08-22T11:32:39.632Z,192.80
2022-08-22T11:33:47.349Z,193.14
2022-08-22T11:34:39.762Z,193.26
2022-08-22T11:35:39.849Z,192.13
2022-08-22T11:36:39.933Z,193.82
2022-08-22T11:37:42.156Z,192.92
2022-08-22T11:38:40.113Z,192.69
2022-08-22T11:39:40.229Z,192.80
2022-08-22T11:40:40.288Z,191.91
2022-08-22T11:41:40.334Z,191.91
2022-08-22T11:42:47.387Z,192.36
2022-08-22T11:43:40.523Z,191.80
2022-08-22T11:44:50.689Z,191.57
2022-08-22T11:45:40.669Z,192.02
2022-08-22T11:46:40.761Z,192.36
2022-08-22T11:47:40.846Z,192.02
2022-08-22T11:48:40.957Z,192.02
2022-08-22T11:49:41.047Z,191.13
2022-08-22T11:50:42.149Z,191.91
2022-08-22T11:51:41.202Z,191.24
2022-08-22T11:52:41.305Z,191.46
2022-08-22T11:53:41.350Z,191.13
2022-08-22T11:54:42.077Z,191.69
2022-08-22T11:55:41.502Z,191.46
2022-08-22T11:56:41.780Z,191.35
2022-08-22T11:57:44.203Z,191.80
2022-08-22T11:58:41.751Z,191.57
2022-08-22T11:59:43.216Z,191.24
2022-08-22T12:00:41.960Z,192.13
2022-08-22T12:01:42.005Z,191.80
2022-08-22T12:02:42.107Z,191.13
2022-08-22T12:03:42.100Z,190.14
2022-08-22T12:04:42.639Z,191.46
2022-08-22T12:05:42.286Z,192.24
2022-08-22T12:06:42.330Z,192.02
2022-08-22T12:07:44.438Z,191.46
2022-08-22T12:08:42.518Z,191.80
2022-08-22T12:09:42.585Z,193.14
2022-08-22T12:10:42.653Z,193.03
2022-08-22T12:11:42.759Z,192.36
2022-08-22T12:12:42.876Z,191.24
2022-08-22T12:13:42.919Z,192.02
2022-08-22T12:14:42.994Z,193.48
2022-08-22T12:15:43.107Z,191.57
2022-08-22T12:16:45.006Z,193.48
2022-08-22T12:17:55.972Z,193.26
2022-08-22T12:18:43.346Z,192.36
2022-08-22T12:20:05.604Z,192.02
2022-08-22T12:20:45.577Z,191.35
2022-08-22T12:21:43.573Z,192.47
2022-08-22T12:22:49.703Z,192.47
2022-08-22T12:23:49.085Z,190.69
2022-08-22T12:24:43.821Z,192.69
2022-08-22T12:25:44.560Z,191.46
2022-08-22T12:26:43.984Z,191.46
2022-08-22T12:27:48.585Z,190.91
2022-08-22T12:28:44.149Z,191.46
2022-08-22T12:29:44.901Z,192.13
2022-08-22T12:30:44.311Z,191.80
2022-08-22T12:31:44.392Z,191.80
2022-08-22T12:32:45.728Z,191.24
2022-08-22T12:33:44.566Z,190.91
2022-08-22T12:34:44.647Z,190.80
2022-08-22T12:35:44.735Z,190.47
2022-08-22T12:36:44.809Z,191.02
2022-08-22T12:38:03.620Z,190.58
2022-08-22T12:38:44.983Z,190.69